Search for airport 
image banner adimage banner adimage banner ad
image banner ad

PS74 - Hahn

Located in Nazareth, United States

ICAO - PS74, IATA -

Data provided by Airmate  

General information

Coordinates: N40°48'10" W75°20'21"
Elevation is 660 feet MSL.
Magnetic variation is -12° East
View others Airports in Pennsylvania

Operational data

Special qualification required
Current time UTC:
Current local time:
Weather at : KABE - Lehigh Valley Intl ( 19 km )
METAR: KABE 071151Z AUTO 06007KT 10SM CLR 10/00 A2993 RMK AO2 SLP135 T01000000 10100 20039 56003 $
TAF: KABE 071120Z 0712/0812 VRB03KT P6SM SCT090 BKN200 FM071600 12005KT P6SM SCT040 OVC060 FM072000 VRB04KT P6SM VCSH BKN060 FM072300 12004KT 6SM -SHRA BR SCT015 OVC025
View NOTAMs / SUP AIP / TFR affecting this airport [VIEW]
Communications frequencies: [VIEW]

Runways:

Airport contact information

Address: Nazareth United States

Satellite view of PS74